Terminal Aerodrome Forecast
Issued by NWS Wichita, KS

Home | Current Version | Previous Version | Graphics & Text | Print | Product List | Glossary On
Versions: 1 2 3 4 5 6 7 8 9 10 11 12 13 14 15 16 17 18 19 20 21
000
FTUS43 KICT 220852 AAB
TAFICT
TAF AMD
KICT 220852Z 2209/2306 16011KT 2SM -DZ BR OVC003
      TEMPO 2209/2213 1 1/2SM -DZ BR
     FM221500 24015KT P6SM VCSH SCT008 BKN012
     FM221800 31018G25KT P6SM SCT020 BKN035
     FM230000 30008KT P6SM SCT100=

USA.gov is the U.S. government's official web portal to all federal, state and local government web resources and services.